createdAt,value
2018-08-30T00:00:20.802Z,16.10
2018-08-30T00:02:50.212Z,16.10
2018-08-30T00:05:19.637Z,16.10
2018-08-30T00:07:48.793Z,16.20
2018-08-30T00:10:18.188Z,16.10
2018-08-30T00:12:47.497Z,16.10
2018-08-30T00:15:16.827Z,16.10
2018-08-30T00:17:46.042Z,16.10
2018-08-30T00:20:15.246Z,16.00
2018-08-30T00:22:44.429Z,16.10
2018-08-30T00:25:13.679Z,16.00
2018-08-30T00:27:42.972Z,16.00
2018-08-30T00:30:12.219Z,16.00
2018-08-30T00:32:41.488Z,15.90
2018-08-30T00:35:10.705Z,15.80
2018-08-30T00:37:40.040Z,15.70
2018-08-30T00:40:10.009Z,15.60
2018-08-30T00:42:39.196Z,15.50
2018-08-30T00:45:08.495Z,15.50
2018-08-30T00:47:38.163Z,15.40
2018-08-30T00:50:07.408Z,15.40
2018-08-30T00:52:36.572Z,15.30
2018-08-30T00:55:05.814Z,15.30
2018-08-30T00:57:35.056Z,15.30
2018-08-30T01:00:04.246Z,15.20
2018-08-30T01:02:33.335Z,15.30
2018-08-30T01:05:09.192Z,15.30
2018-08-30T01:07:38.467Z,15.30
2018-08-30T01:10:07.637Z,15.30
2018-08-30T01:12:40.876Z,15.30
2018-08-30T01:15:10.037Z,15.30
2018-08-30T01:17:39.188Z,15.40
2018-08-30T01:20:08.327Z,15.40
2018-08-30T01:22:37.452Z,15.40
2018-08-30T01:25:06.707Z,15.40
2018-08-30T01:27:35.900Z,15.40
2018-08-30T01:30:05.417Z,15.40
2018-08-30T01:32:34.539Z,15.40
2018-08-30T01:35:03.652Z,15.40
2018-08-30T01:37:32.839Z,15.40
2018-08-30T01:40:02.086Z,15.40
2018-08-30T01:42:31.599Z,15.40
2018-08-30T01:45:07.308Z,15.40
2018-08-30T01:47:36.637Z,15.40
2018-08-30T01:50:05.873Z,15.50
2018-08-30T01:52:35.056Z,15.40
2018-08-30T01:55:04.284Z,15.40
2018-08-30T01:57:33.426Z,15.40
2018-08-30T02:00:02.553Z,15.40
2018-08-30T02:02:31.772Z,15.40
2018-08-30T02:05:00.871Z,15.30
2018-08-30T02:07:30.016Z,15.30
2018-08-30T02:09:59.196Z,15.30
2018-08-30T02:12:28.269Z,15.30
2018-08-30T02:14:57.515Z,15.30
2018-08-30T02:17:26.672Z,15.30
2018-08-30T02:19:55.848Z,15.30
2018-08-30T02:22:24.964Z,15.30
2018-08-30T02:24:54.129Z,15.30
2018-08-30T02:27:23.270Z,15.30
2018-08-30T02:29:52.449Z,15.30
2018-08-30T02:32:21.551Z,15.30
2018-08-30T02:34:50.638Z,15.30
2018-08-30T02:37:19.759Z,15.30
2018-08-30T02:39:48.967Z,15.30
2018-08-30T02:42:18.048Z,15.30
2018-08-30T02:44:47.319Z,15.30
2018-08-30T02:47:16.499Z,15.30
2018-08-30T02:49:45.633Z,15.30
2018-08-30T02:52:14.766Z,15.30
2018-08-30T02:54:44.032Z,15.30
2018-08-30T02:57:13.265Z,15.30
2018-08-30T02:59:42.427Z,15.40
2018-08-30T03:02:11.514Z,15.30
2018-08-30T03:04:40.635Z,15.40
2018-08-30T03:07:09.769Z,15.40
2018-08-30T03:09:38.855Z,15.40
2018-08-30T03:12:07.961Z,15.40
2018-08-30T03:14:37.066Z,15.40
2018-08-30T03:17:06.102Z,15.40
2018-08-30T03:19:35.185Z,15.40
2018-08-30T03:22:04.160Z,15.40
2018-08-30T03:24:33.040Z,15.40
2018-08-30T03:27:01.949Z,15.50
2018-08-30T03:29:31.057Z,15.50
2018-08-30T03:31:59.949Z,15.40
2018-08-30T03:34:28.931Z,15.40
2018-08-30T03:36:57.909Z,15.40
2018-08-30T03:39:26.862Z,15.40
2018-08-30T03:41:55.796Z,15.40
2018-08-30T03:44:24.675Z,15.30
2018-08-30T03:46:53.841Z,15.30
2018-08-30T03:49:22.711Z,15.30
2018-08-30T03:51:51.708Z,15.30
2018-08-30T03:54:20.629Z,15.30
2018-08-30T03:56:49.716Z,15.30
2018-08-30T03:59:18.827Z,15.30
2018-08-30T04:01:47.760Z,15.30
2018-08-30T04:04:16.772Z,15.30
2018-08-30T04:06:45.721Z,15.20
2018-08-30T04:09:14.680Z,15.30
2018-08-30T04:11:43.779Z,15.30
2018-08-30T04:14:12.834Z,15.20
2018-08-30T04:16:41.830Z,15.30
2018-08-30T04:19:10.813Z,15.30
2018-08-30T04:21:39.788Z,15.20
2018-08-30T04:24:09.656Z,15.30
2018-08-30T04:26:38.681Z,15.30
2018-08-30T04:29:07.609Z,15.30
2018-08-30T04:31:37.053Z,15.30
2018-08-30T04:34:06.107Z,15.30
2018-08-30T04:36:35.138Z,15.30
2018-08-30T04:39:04.236Z,15.40
2018-08-30T04:41:33.190Z,15.40
2018-08-30T04:44:02.157Z,15.40
2018-08-30T04:46:31.156Z,15.40
2018-08-30T04:49:00.137Z,15.40
2018-08-30T04:51:29.116Z,15.40
2018-08-30T04:53:58.045Z,15.40
2018-08-30T04:56:27.066Z,15.40
2018-08-30T04:58:56.094Z,15.40
2018-08-30T05:01:25.280Z,15.40
2018-08-30T05:03:54.232Z,15.40
2018-08-30T05:06:23.188Z,15.40
2018-08-30T05:08:52.166Z,15.50
2018-08-30T05:11:21.193Z,15.50
2018-08-30T05:13:50.179Z,15.50
2018-08-30T05:16:19.927Z,15.50
2018-08-30T05:18:48.866Z,15.50
2018-08-30T05:21:17.833Z,15.50
2018-08-30T05:23:46.913Z,15.50
2018-08-30T05:26:15.930Z,15.60
2018-08-30T05:28:44.956Z,15.60
2018-08-30T05:31:13.837Z,15.60
2018-08-30T05:33:42.775Z,15.60
2018-08-30T05:36:12.108Z,15.60
2018-08-30T05:38:41.316Z,15.70
2018-08-30T05:41:10.354Z,15.70
2018-08-30T05:43:39.398Z,15.80
2018-08-30T05:46:09.509Z,15.70
2018-08-30T05:48:38.683Z,15.80
2018-08-30T05:51:08.320Z,15.80
2018-08-30T05:53:37.530Z,15.80
2018-08-30T05:56:06.963Z,15.80
2018-08-30T05:58:36.219Z,15.80
2018-08-30T06:01:05.420Z,15.80
2018-08-30T06:03:34.663Z,15.90
2018-08-30T06:06:03.864Z,15.90
2018-08-30T06:08:33.112Z,16.00
2018-08-30T06:11:02.156Z,16.00
2018-08-30T06:13:31.110Z,16.10
2018-08-30T06:16:00.255Z,16.10
2018-08-30T06:18:29.417Z,16.20
2018-08-30T06:20:58.409Z,16.20
2018-08-30T06:23:27.486Z,16.20
2018-08-30T06:25:57.066Z,16.20
2018-08-30T06:28:26.279Z,16.20
2018-08-30T06:30:55.523Z,16.20
2018-08-30T06:33:25.034Z,16.30
2018-08-30T06:35:54.126Z,16.30
2018-08-30T06:38:23.487Z,16.40
2018-08-30T06:40:52.759Z,16.40
2018-08-30T06:43:22.045Z,16.40
2018-08-30T06:45:51.389Z,16.50
2018-08-30T06:48:20.760Z,16.50
2018-08-30T06:50:50.029Z,16.50
2018-08-30T06:53:19.229Z,16.40
2018-08-30T06:55:48.455Z,16.40
2018-08-30T06:58:17.734Z,16.40
2018-08-30T07:00:47.401Z,16.40
2018-08-30T07:03:16.945Z,16.50
2018-08-30T07:05:46.140Z,16.50
2018-08-30T07:08:15.632Z,16.50
2018-08-30T07:10:45.693Z,16.60
2018-08-30T07:13:15.199Z,16.50
2018-08-30T07:15:47.360Z,16.50
2018-08-30T07:18:16.791Z,16.40
2018-08-30T07:20:46.046Z,16.40
2018-08-30T07:23:15.233Z,16.30
2018-08-30T07:25:44.258Z,16.40
2018-08-30T07:28:13.233Z,16.30
2018-08-30T07:30:43.308Z,16.30
2018-08-30T07:33:12.393Z,16.30
2018-08-30T07:35:41.468Z,16.30
2018-08-30T07:38:10.552Z,16.30
2018-08-30T07:40:39.511Z,16.40
2018-08-30T07:43:08.833Z,16.40
2018-08-30T07:45:37.891Z,16.40
2018-08-30T07:48:07.234Z,16.50
2018-08-30T07:50:36.181Z,16.50
2018-08-30T07:53:05.304Z,16.50
2018-08-30T07:55:34.769Z,16.60
2018-08-30T07:58:03.806Z,16.60
2018-08-30T08:00:33.910Z,16.70
2018-08-30T08:03:03.070Z,16.80
2018-08-30T08:05:32.370Z,16.90
2018-08-30T08:08:02.526Z,16.90
2018-08-30T08:10:31.497Z,17.10
2018-08-30T08:13:00.698Z,17.30
2018-08-30T08:15:29.774Z,17.50
2018-08-30T08:17:58.667Z,17.70
2018-08-30T08:20:27.652Z,17.80
2018-08-30T08:22:56.859Z,17.80
2018-08-30T08:25:25.871Z,17.70
2018-08-30T08:27:55.053Z,17.60
2018-08-30T08:30:24.316Z,17.50
2018-08-30T08:32:53.295Z,17.50
2018-08-30T08:35:22.410Z,17.50
2018-08-30T08:37:51.695Z,17.50
2018-08-30T08:40:20.657Z,17.70
2018-08-30T08:42:49.647Z,17.90
2018-08-30T08:45:18.648Z,18.00
2018-08-30T08:47:47.857Z,18.10
2018-08-30T08:50:17.176Z,18.10
2018-08-30T08:52:46.445Z,18.10
2018-08-30T08:55:15.565Z,18.00
2018-08-30T08:57:44.724Z,18.20
2018-08-30T09:00:14.114Z,18.30
2018-08-30T09:02:43.216Z,18.50
2018-08-30T09:05:12.447Z,18.60
2018-08-30T09:07:41.614Z,18.80
2018-08-30T09:10:10.901Z,18.90
2018-08-30T09:12:39.966Z,18.90
2018-08-30T09:15:09.196Z,19.00
2018-08-30T09:17:39.498Z,18.80
2018-08-30T09:20:10.097Z,18.60
2018-08-30T09:22:39.719Z,18.70
2018-08-30T09:25:09.846Z,18.80
2018-08-30T09:27:38.880Z,18.80
2018-08-30T09:30:08.106Z,19.00
2018-08-30T09:32:37.248Z,19.10
2018-08-30T09:35:06.728Z,19.20
2018-08-30T09:37:36.013Z,19.30
2018-08-30T09:40:05.238Z,19.50
2018-08-30T09:42:34.513Z,19.70
2018-08-30T09:45:03.638Z,20.00
2018-08-30T09:47:32.950Z,20.20
2018-08-30T09:50:02.242Z,20.60
2018-08-30T09:52:31.469Z,20.80
2018-08-30T09:55:00.630Z,20.70
2018-08-30T09:57:29.822Z,20.40
2018-08-30T09:59:59.016Z,20.10
2018-08-30T10:02:33.274Z,20.00
2018-08-30T10:05:02.327Z,20.40
2018-08-30T10:07:31.683Z,20.70
2018-08-30T10:10:00.842Z,21.00
2018-08-30T10:12:30.057Z,21.50
2018-08-30T10:14:59.138Z,22.00
2018-08-30T10:17:28.264Z,21.70
2018-08-30T10:19:57.333Z,21.00
2018-08-30T10:22:26.614Z,20.30
2018-08-30T10:24:55.803Z,19.90
2018-08-30T10:27:24.934Z,20.20
2018-08-30T10:29:54.058Z,20.70
2018-08-30T10:32:23.249Z,21.00
2018-08-30T10:34:52.439Z,21.60
2018-08-30T10:37:21.681Z,22.30
2018-08-30T10:39:50.660Z,22.90
2018-08-30T10:42:19.789Z,22.70
2018-08-30T10:44:49.039Z,22.10
2018-08-30T10:47:21.305Z,21.40
2018-08-30T10:49:50.382Z,21.10
2018-08-30T10:52:19.733Z,21.40
2018-08-30T10:54:49.070Z,22.00
2018-08-30T10:57:18.299Z,21.50
2018-08-30T10:59:47.461Z,21.50
2018-08-30T11:02:16.717Z,21.60
2018-08-30T11:04:45.929Z,21.80
2018-08-30T11:07:15.253Z,21.70
2018-08-30T11:09:44.432Z,21.60
2018-08-30T11:12:13.710Z,22.20
2018-08-30T11:14:43.000Z,23.20
2018-08-30T11:17:12.209Z,23.30
2018-08-30T11:19:41.280Z,23.00
2018-08-30T11:22:10.320Z,22.60
2018-08-30T11:24:39.456Z,22.60
2018-08-30T11:27:08.420Z,23.20
2018-08-30T11:29:37.510Z,23.80
2018-08-30T11:32:06.515Z,23.80
2018-08-30T11:34:35.572Z,23.50
2018-08-30T11:37:04.871Z,23.60
2018-08-30T11:39:33.912Z,23.80
2018-08-30T11:42:03.220Z,23.60
2018-08-30T11:44:32.237Z,23.60
2018-08-30T11:47:01.423Z,24.00
2018-08-30T11:49:30.675Z,24.10
2018-08-30T11:51:59.859Z,24.40
2018-08-30T11:54:28.894Z,25.10
2018-08-30T11:56:57.976Z,24.60
2018-08-30T11:59:27.022Z,23.90
2018-08-30T12:01:56.132Z,23.10
2018-08-30T12:04:25.447Z,22.60
2018-08-30T12:06:54.672Z,22.70
2018-08-30T12:09:23.805Z,22.60
2018-08-30T12:11:53.060Z,22.60
2018-08-30T12:14:22.145Z,22.20
2018-08-30T12:16:51.187Z,22.20
2018-08-30T12:19:26.478Z,22.50
2018-08-30T12:21:55.589Z,22.70
2018-08-30T12:24:24.640Z,22.90
2018-08-30T12:26:54.221Z,23.40
2018-08-30T12:29:23.426Z,23.90
2018-08-30T12:31:52.469Z,24.40
2018-08-30T12:34:21.470Z,25.00
2018-08-30T12:36:50.688Z,24.90
2018-08-30T12:39:19.802Z,25.10
2018-08-30T12:41:49.019Z,24.30
2018-08-30T12:44:18.017Z,23.60
2018-08-30T12:46:47.153Z,23.20
2018-08-30T12:49:16.429Z,23.80
2018-08-30T12:51:45.826Z,24.10
2018-08-30T12:54:14.738Z,23.70
2018-08-30T12:56:44.007Z,24.10
2018-08-30T12:59:17.318Z,24.80
2018-08-30T13:01:47.299Z,26.20
2018-08-30T13:04:16.628Z,26.70
2018-08-30T13:06:50.033Z,26.00
2018-08-30T13:09:18.988Z,24.90
2018-08-30T13:11:48.373Z,24.30
2018-08-30T13:14:17.517Z,23.70
2018-08-30T13:16:46.455Z,23.90
2018-08-30T13:19:15.511Z,24.80
2018-08-30T13:21:44.705Z,26.10
2018-08-30T13:24:14.059Z,26.60
2018-08-30T13:26:43.155Z,26.90
2018-08-30T13:29:12.122Z,26.60
2018-08-30T13:31:41.936Z,25.90
2018-08-30T13:34:10.823Z,25.90
2018-08-30T13:36:39.854Z,25.90
2018-08-30T13:39:10.913Z,25.50
2018-08-30T13:41:39.954Z,25.20
2018-08-30T13:44:10.302Z,24.10
2018-08-30T13:46:40.202Z,23.90
2018-08-30T13:49:09.694Z,25.00
2018-08-30T13:51:38.651Z,25.40
2018-08-30T13:54:07.937Z,25.30
2018-08-30T13:56:36.927Z,25.70
2018-08-30T13:59:06.219Z,26.00
2018-08-30T14:01:35.266Z,25.40
2018-08-30T14:04:04.106Z,25.60
2018-08-30T14:06:33.122Z,26.30
2018-08-30T14:09:02.228Z,26.20
2018-08-30T14:11:31.320Z,25.50
2018-08-30T14:14:00.383Z,24.60
2018-08-30T14:16:29.010Z,24.50
2018-08-30T14:18:58.034Z,26.20
2018-08-30T14:21:27.030Z,27.10
2018-08-30T14:23:55.995Z,27.00
2018-08-30T14:26:25.092Z,28.10
2018-08-30T14:28:54.045Z,28.10
2018-08-30T14:31:22.978Z,27.20
2018-08-30T14:33:51.909Z,27.30
2018-08-30T14:36:20.781Z,26.40
2018-08-30T14:38:49.922Z,25.80
2018-08-30T14:41:19.014Z,25.90
2018-08-30T14:43:47.913Z,26.00
2018-08-30T14:46:16.786Z,26.40
2018-08-30T14:48:45.731Z,26.50
2018-08-30T14:51:14.797Z,26.70
2018-08-30T14:53:43.827Z,26.80
2018-08-30T14:56:12.773Z,26.50
2018-08-30T14:58:41.664Z,27.00
2018-08-30T15:01:11.428Z,27.60
2018-08-30T15:03:40.412Z,28.40
2018-08-30T15:06:09.575Z,29.20
2018-08-30T15:08:38.631Z,28.50
2018-08-30T15:11:07.679Z,27.00
2018-08-30T15:13:36.738Z,26.80
2018-08-30T15:16:05.615Z,25.80
2018-08-30T15:18:34.629Z,24.30
2018-08-30T15:21:03.609Z,24.20
2018-08-30T15:23:32.722Z,24.60
2018-08-30T15:26:02.001Z,25.50
2018-08-30T15:28:31.018Z,26.30
2018-08-30T15:30:59.936Z,27.30
2018-08-30T15:33:28.945Z,28.00
2018-08-30T15:35:57.922Z,28.80
2018-08-30T15:38:26.868Z,29.30
2018-08-30T15:40:55.781Z,28.90
2018-08-30T15:43:24.656Z,28.80
2018-08-30T15:45:53.512Z,28.50
2018-08-30T15:48:22.617Z,28.60
2018-08-30T15:50:51.509Z,28.10
2018-08-30T15:53:20.573Z,27.90
2018-08-30T15:55:49.340Z,28.40
2018-08-30T15:58:18.551Z,29.00
2018-08-30T16:00:47.644Z,28.70
2018-08-30T16:03:16.850Z,27.60
2018-08-30T16:05:46.047Z,27.10
2018-08-30T16:08:15.187Z,26.30
2018-08-30T16:10:44.039Z,26.20
2018-08-30T16:13:13.083Z,26.40
2018-08-30T16:15:41.913Z,26.30
2018-08-30T16:18:10.870Z,25.70
2018-08-30T16:20:39.789Z,25.00
2018-08-30T16:23:14.352Z,24.90
2018-08-30T16:25:43.176Z,24.40
2018-08-30T16:28:12.076Z,24.10
2018-08-30T16:30:41.036Z,23.80
2018-08-30T16:33:09.849Z,23.40
2018-08-30T16:35:38.778Z,23.10
2018-08-30T16:38:07.705Z,22.90
2018-08-30T16:40:36.582Z,22.50
2018-08-30T16:43:05.593Z,22.10
2018-08-30T16:45:34.438Z,22.00
2018-08-30T16:48:03.371Z,22.00
2018-08-30T16:50:32.179Z,21.70
2018-08-30T16:53:01.064Z,21.60
2018-08-30T16:55:29.920Z,21.40
2018-08-30T16:57:58.770Z,21.30
2018-08-30T17:00:27.716Z,21.30
2018-08-30T17:02:57.334Z,21.20
2018-08-30T17:05:26.332Z,21.00
2018-08-30T17:07:55.198Z,20.80
2018-08-30T17:10:24.119Z,20.70
2018-08-30T17:12:53.055Z,20.60
2018-08-30T17:15:22.098Z,20.60
2018-08-30T17:17:50.996Z,20.60
2018-08-30T17:20:25.743Z,20.70
2018-08-30T17:22:54.679Z,20.70
2018-08-30T17:25:23.829Z,20.70
2018-08-30T17:27:52.671Z,20.60
2018-08-30T17:30:21.470Z,20.50
2018-08-30T17:32:50.521Z,20.40
2018-08-30T17:35:19.348Z,20.30
2018-08-30T17:37:48.183Z,20.20
2018-08-30T17:40:17.040Z,20.20
2018-08-30T17:42:46.009Z,20.10
2018-08-30T17:45:14.825Z,20.10
2018-08-30T17:47:43.733Z,20.10
2018-08-30T17:50:12.696Z,20.10
2018-08-30T17:52:41.523Z,20.00
2018-08-30T17:55:10.415Z,19.90
2018-08-30T17:57:39.208Z,19.90
2018-08-30T18:00:10.171Z,19.80
2018-08-30T18:02:39.016Z,19.70
2018-08-30T18:05:08.034Z,19.60
2018-08-30T18:07:36.881Z,19.50
2018-08-30T18:10:07.040Z,19.40
2018-08-30T18:12:38.716Z,19.40
2018-08-30T18:15:10.336Z,19.30
2018-08-30T18:17:39.202Z,19.20
2018-08-30T18:20:08.133Z,19.20
2018-08-30T18:22:37.074Z,19.10
2018-08-30T18:25:05.971Z,19.00
2018-08-30T18:27:34.886Z,18.90
2018-08-30T18:30:03.821Z,18.90
2018-08-30T18:32:32.698Z,18.80
2018-08-30T18:35:01.576Z,18.80
2018-08-30T18:37:30.413Z,18.70
2018-08-30T18:39:59.312Z,18.60
2018-08-30T18:42:28.308Z,18.60
2018-08-30T18:44:57.000Z,18.50
2018-08-30T18:47:25.836Z,18.40
2018-08-30T18:49:54.662Z,18.40
2018-08-30T18:52:23.652Z,18.30
2018-08-30T18:54:52.519Z,18.20
2018-08-30T18:57:21.398Z,18.20
2018-08-30T18:59:50.321Z,18.10
2018-08-30T19:02:19.228Z,18.10
2018-08-30T19:04:48.104Z,18.00
2018-08-30T19:07:16.990Z,18.00
2018-08-30T19:09:45.828Z,17.90
2018-08-30T19:12:14.636Z,17.80
2018-08-30T19:14:43.479Z,17.80
2018-08-30T19:17:17.599Z,17.70
2018-08-30T19:19:46.449Z,17.70
2018-08-30T19:22:15.321Z,17.60
2018-08-30T19:24:49.249Z,17.60
2018-08-30T19:27:18.133Z,17.60
2018-08-30T19:36:36.173Z,17.50
2018-08-30T19:39:08.683Z,17.30
2018-08-30T19:41:37.668Z,17.30
2018-08-30T19:44:06.695Z,17.20
2018-08-30T19:46:35.510Z,17.20
2018-08-30T19:49:04.445Z,17.20
2018-08-30T19:51:33.333Z,17.10
2018-08-30T19:54:02.169Z,17.10
2018-08-30T19:56:31.023Z,17.10
2018-08-30T19:58:59.863Z,17.00
2018-08-30T20:01:28.715Z,17.00
2018-08-30T20:03:57.570Z,16.90
2018-08-30T20:06:26.498Z,16.90
2018-08-30T20:11:30.638Z,16.90
2018-08-30T20:13:59.470Z,16.80
2018-08-30T20:16:28.360Z,16.80
2018-08-30T20:18:57.256Z,16.80
2018-08-30T20:21:26.098Z,16.80
2018-08-30T20:23:54.973Z,16.80
2018-08-30T20:26:23.818Z,16.80
2018-08-30T20:28:52.769Z,16.70
2018-08-30T20:31:21.598Z,16.70
2018-08-30T20:33:50.470Z,16.70
2018-08-30T20:36:19.692Z,16.70
2018-08-30T20:38:48.568Z,16.60
2018-08-30T20:41:17.532Z,16.60
2018-08-30T20:43:46.308Z,16.50
2018-08-30T20:46:15.132Z,16.50
2018-08-30T20:48:43.973Z,16.50
2018-08-30T20:51:12.797Z,16.40
2018-08-30T20:53:41.804Z,16.40
2018-08-30T20:56:10.599Z,16.40
2018-08-30T20:58:39.468Z,16.40
2018-08-30T21:01:08.293Z,16.40
2018-08-30T21:03:37.174Z,16.30
2018-08-30T21:06:06.145Z,16.30
2018-08-30T21:08:36.016Z,16.30
2018-08-30T21:11:05.166Z,16.30
2018-08-30T21:13:35.068Z,16.30
2018-08-30T21:16:03.883Z,16.30
2018-08-30T21:18:32.732Z,16.20
2018-08-30T21:21:01.701Z,16.20
2018-08-30T21:23:30.463Z,16.20
2018-08-30T21:25:59.261Z,16.10
2018-08-30T21:28:28.106Z,16.10
2018-08-30T21:30:56.941Z,16.10
2018-08-30T21:33:25.783Z,16.00
2018-08-30T21:35:54.606Z,16.00
2018-08-30T21:38:23.456Z,16.00
2018-08-30T21:40:52.255Z,16.00
2018-08-30T21:43:21.170Z,15.90
2018-08-30T21:45:49.966Z,15.90
2018-08-30T21:48:18.842Z,15.90
2018-08-30T21:50:47.678Z,15.90
2018-08-30T21:53:16.540Z,15.80
2018-08-30T21:55:45.374Z,15.80
2018-08-30T21:58:14.247Z,15.80
2018-08-30T22:00:43.107Z,15.80
2018-08-30T22:03:11.948Z,15.80
2018-08-30T22:05:40.800Z,15.70
2018-08-30T22:08:09.663Z,15.70
2018-08-30T22:10:38.484Z,15.70
2018-08-30T22:13:07.394Z,15.70
2018-08-30T22:15:36.161Z,15.70
2018-08-30T22:18:05.026Z,15.60
2018-08-30T22:20:33.866Z,15.60
2018-08-30T22:23:02.761Z,15.60
2018-08-30T22:25:31.613Z,15.60
2018-08-30T22:28:00.481Z,15.60
2018-08-30T22:30:29.350Z,15.50
2018-08-30T22:32:58.151Z,15.50
2018-08-30T22:35:27.007Z,15.50
2018-08-30T22:37:55.871Z,15.50
2018-08-30T22:40:24.769Z,15.50
2018-08-30T22:42:53.580Z,15.40
2018-08-30T22:45:22.478Z,15.40
2018-08-30T22:47:51.367Z,15.30
2018-08-30T22:50:20.255Z,15.20
2018-08-30T22:52:49.058Z,15.10
2018-08-30T22:55:17.892Z,15.10
2018-08-30T22:57:46.904Z,15.00
2018-08-30T23:00:15.681Z,14.90
2018-08-30T23:02:44.541Z,14.90
2018-08-30T23:05:13.530Z,14.80
2018-08-30T23:07:42.389Z,14.80
2018-08-30T23:10:11.432Z,14.70
2018-08-30T23:12:40.250Z,14.70
2018-08-30T23:15:09.117Z,14.70
2018-08-30T23:17:37.961Z,14.60
2018-08-30T23:20:06.736Z,14.50
2018-08-30T23:22:35.554Z,14.50
2018-08-30T23:25:04.508Z,14.50
2018-08-30T23:27:33.281Z,14.40
2018-08-30T23:30:02.190Z,14.40
2018-08-30T23:32:30.977Z,14.40
2018-08-30T23:34:59.910Z,14.30
2018-08-30T23:37:28.721Z,14.30
2018-08-30T23:39:57.562Z,14.30
2018-08-30T23:42:26.416Z,14.30
2018-08-30T23:44:55.270Z,14.30
2018-08-30T23:47:24.041Z,14.20
2018-08-30T23:49:52.867Z,14.20
2018-08-30T23:52:21.673Z,14.20
2018-08-30T23:54:50.526Z,14.20
2018-08-30T23:57:19.372Z,14.10
2018-08-30T23:59:59.248Z,14.10
